Morehead City, NC

2:46 PM EST on December 05, 2016 (GMT -0500)
North shore 1 | | Change Station

Elev 3 ft 34.71 °N, 76.74 °W | Updated 20 minutes ago

Clear
Clear
57.3 °F
Feels Like 57.3 °F
N
0.0
Wind Variable Wind from NNE
Gusts 0.0 mph

Today
High -- | Low -- °F
--% Chance of Precip.
Yesterday
High -- | Low -- °F
Precip. -- in
Pressure 29.97 in
Visibility 10.0 miles
Clouds Clear
Dew Point 53 °F
Humidity 84%
Rainfall 1.53 in
Snow Depth Not available.
6:59 AM 4:55 PM
Waxing Crescent, 34% visible
METAR KMRH 051858Z AUTO 01013KT 10SM CLR 16/11 A2997 RMK AO2 SLP147 T01560106 TSNO
Pressure 29.97 in
Visibility 10.0 miles
Clouds Clear
Dew Point 53 °F
Humidity 84%
Rainfall 1.53 in
Snow Depth Not available.
6:59 AM 4:55 PM
Waxing Crescent, 34% visible
METAR KMRH 051858Z AUTO 01013KT 10SM CLR 16/11 A2997 RMK AO2 SLP147 T01560106 TSNO

10-Day Weather Forecast

Almanac

Astronomy

Dec. 05, 2016 Rise Set
Actual Time
Civil Twilight
Nautical Twilight
Astronomical Twilight
Moon
Length of Visible Light
Length of Day
Tomorrow will be .
, % of the Moon is Illuminated

Today's Extremes

State Highs State Lows

Community

WunderPhotos

Upload Photos

1,955,845 photos uploaded!

WunderBlog® & News

Nearby

Air Quality

  Air Quality AQ Index Pollutant
Not available.

Snow Depth

Station Depth Elevation

Earthquake Activity

City Distance Mag. Time & Date
Minimum magnitude displayed is 2.5.

Coastal Water Temperatures

Place Temperature

Stations

Nearby Weather Stations

Station Location Temp. Windchill Dew Point Humidity Wind Precip. Elev Updated Type
                   

Watches & Warnings

There are currently no watches in effect.